createdAt,value
2022-12-27T00:01:45.455Z,100840.28
2022-12-27T00:04:48.563Z,100856.59
2022-12-27T00:07:51.353Z,100855.75
2022-12-27T00:10:54.362Z,100856.66
2022-12-27T00:14:04.899Z,100860.97
2022-12-27T00:17:07.786Z,100849.75
2022-12-27T00:20:11.815Z,100842.88
2022-12-27T00:23:14.929Z,100822.19
2022-12-27T00:26:23.933Z,100828.97
2022-12-27T00:29:27.005Z,100817.66
2022-12-27T00:32:30.599Z,100824.50
2022-12-27T00:35:33.460Z,100831.44
2022-12-27T00:38:36.325Z,100844.25
2022-12-27T00:41:39.330Z,100839.16
2022-12-27T00:44:43.312Z,100834.91
2022-12-27T00:47:46.157Z,100819.44
2022-12-27T00:50:48.878Z,100809.09
2022-12-27T00:53:54.120Z,100791.91
2022-12-27T00:56:56.678Z,100805.56
2022-12-27T01:00:03.407Z,100808.09
2022-12-27T01:03:08.974Z,100800.41
2022-12-27T01:06:20.035Z,100800.47
2022-12-27T01:09:22.613Z,100815.06
2022-12-27T01:12:25.675Z,100799.59
2022-12-27T01:15:32.902Z,100784.00
2022-12-27T01:18:35.728Z,100787.31
2022-12-27T01:21:38.719Z,100770.16
2022-12-27T01:24:41.546Z,100775.94
2022-12-27T01:27:44.346Z,100788.84
2022-12-27T01:30:47.158Z,100778.56
2022-12-27T01:33:49.853Z,100784.53
2022-12-27T01:36:52.792Z,100784.47
2022-12-27T01:39:55.894Z,100791.22
2022-12-27T01:42:58.725Z,100792.84
2022-12-27T01:46:01.298Z,100793.50
2022-12-27T01:49:05.295Z,100782.25
2022-12-27T01:52:10.819Z,100784.16
2022-12-27T01:55:44.095Z,100781.22
2022-12-27T01:58:49.460Z,100790.13
2022-12-27T02:01:52.647Z,100798.78
2022-12-27T02:04:58.359Z,100798.16
2022-12-27T02:08:01.165Z,100798.94
2022-12-27T02:11:05.362Z,100787.16
2022-12-27T02:14:09.800Z,100800.66
2022-12-27T02:17:17.513Z,100807.56
2022-12-27T02:20:22.889Z,100814.25
2022-12-27T02:24:04.702Z,100809.59
2022-12-27T02:27:37.669Z,100811.50
2022-12-27T02:30:42.981Z,100822.66
2022-12-27T02:33:48.812Z,100827.66
2022-12-27T02:36:56.497Z,100823.97
2022-12-27T02:40:23.587Z,100815.81
2022-12-27T02:43:46.511Z,100799.81
2022-12-27T02:47:08.532Z,100789.13
2022-12-27T02:50:32.884Z,100784.38
2022-12-27T02:54:10.117Z,100787.19
2022-12-27T02:57:36.158Z,100792.19
2022-12-27T03:01:12.127Z,100790.44
2022-12-27T03:04:37.156Z,100799.13
2022-12-27T03:08:08.864Z,100799.84
2022-12-27T03:11:30.506Z,100800.06
2022-12-27T03:14:59.572Z,100814.59
2022-12-27T03:18:14.937Z,100820.16
2022-12-27T03:21:51.269Z,100811.62
2022-12-27T03:25:15.623Z,100808.72
2022-12-27T03:28:42.712Z,100815.53
2022-12-27T03:32:08.455Z,100825.00
2022-12-27T03:35:21.339Z,100825.75
2022-12-27T03:38:24.701Z,100822.41
2022-12-27T03:41:51.298Z,100821.38
2022-12-27T03:44:54.640Z,100831.56
2022-12-27T03:48:04.985Z,100840.81
2022-12-27T03:51:08.827Z,100847.25
2022-12-27T03:54:19.111Z,100846.28
2022-12-27T03:57:26.324Z,100851.34
2022-12-27T04:00:29.971Z,100856.06
2022-12-27T04:03:32.937Z,100855.94
2022-12-27T04:06:35.562Z,100852.75
2022-12-27T04:09:57.548Z,100854.50
2022-12-27T04:13:19.059Z,100855.03
2022-12-27T04:16:40.680Z,100864.53
2022-12-27T04:20:01.628Z,100860.09
2022-12-27T04:23:23.716Z,100862.59
2022-12-27T04:26:44.590Z,100858.94
2022-12-27T04:30:05.842Z,100884.75
2022-12-27T04:33:26.734Z,100890.44
2022-12-27T04:36:29.575Z,100895.34
2022-12-27T04:39:32.852Z,100906.00
2022-12-27T04:42:54.365Z,100899.56
2022-12-27T04:46:15.339Z,100908.66
2022-12-27T04:49:41.895Z,100911.97
2022-12-27T04:53:03.114Z,100922.31
2022-12-27T04:56:07.238Z,100922.53
2022-12-27T04:59:28.429Z,100929.78
2022-12-27T05:02:31.536Z,100942.22
2022-12-27T05:05:35.527Z,100945.13
2022-12-27T05:08:57.357Z,100963.09
2022-12-27T05:12:18.812Z,100967.41
2022-12-27T05:15:22.921Z,100961.00
2022-12-27T05:18:25.592Z,100966.66
2022-12-27T05:21:28.514Z,100967.16
2022-12-27T05:24:50.829Z,100978.91
2022-12-27T05:27:53.684Z,100971.72
2022-12-27T05:31:01.641Z,100990.53
2022-12-27T05:34:06.846Z,100979.87
2022-12-27T05:37:09.604Z,100972.25
2022-12-27T05:40:12.900Z,100979.66
2022-12-27T05:43:15.480Z,100979.22
2022-12-27T05:46:20.752Z,100983.25
2022-12-27T05:49:23.418Z,100980.16
2022-12-27T05:52:26.324Z,100996.91
2022-12-27T05:55:28.901Z,101000.38
2022-12-27T05:58:32.187Z,101007.88
2022-12-27T06:01:35.156Z,101015.50
2022-12-27T06:04:38.136Z,101025.00
2022-12-27T06:07:40.691Z,101036.44
2022-12-27T06:10:43.638Z,101025.34
2022-12-27T06:13:52.699Z,101030.16
2022-12-27T06:16:55.610Z,101030.66
2022-12-27T06:19:58.655Z,101034.53
2022-12-27T06:23:02.132Z,101044.97
2022-12-27T06:26:10.983Z,101042.50
2022-12-27T06:29:14.107Z,101050.44
2022-12-27T06:32:17.824Z,101051.44
2022-12-27T06:35:20.803Z,101064.31
2022-12-27T06:38:24.118Z,101070.25
2022-12-27T06:41:27.061Z,101069.56
2022-12-27T06:44:29.624Z,101064.06
2022-12-27T06:47:32.814Z,101070.69
2022-12-27T06:50:36.878Z,101077.22
2022-12-27T06:53:39.804Z,101088.03
2022-12-27T06:56:42.439Z,101100.28
2022-12-27T06:59:49.505Z,101084.84
2022-12-27T07:02:56.662Z,101091.84
2022-12-27T07:06:03.074Z,101100.69
2022-12-27T07:09:06.068Z,101108.84
2022-12-27T07:12:08.988Z,101109.31
2022-12-27T07:15:11.779Z,101118.66
2022-12-27T07:18:14.715Z,101110.16
2022-12-27T07:21:20.326Z,101123.06
2022-12-27T07:24:23.627Z,101125.37
2022-12-27T07:27:26.168Z,101119.34
2022-12-27T07:30:29.677Z,101137.50
2022-12-27T07:33:32.518Z,101128.44
2022-12-27T07:36:40.386Z,101141.31
2022-12-27T07:39:42.986Z,101140.62
2022-12-27T07:42:46.052Z,101147.56
2022-12-27T07:45:48.775Z,101138.91
2022-12-27T07:48:56.599Z,101150.97
2022-12-27T07:51:59.260Z,101175.31
2022-12-27T07:55:02.089Z,101168.41
2022-12-27T07:58:04.888Z,101172.69
2022-12-27T08:01:09.420Z,101180.41
2022-12-27T08:04:12.277Z,101211.97
2022-12-27T08:07:19.969Z,101212.44
2022-12-27T08:10:23.024Z,101238.13
2022-12-27T08:13:26.864Z,101224.25
2022-12-27T08:16:29.941Z,101234.97
2022-12-27T08:19:32.708Z,101252.69
2022-12-27T08:22:35.768Z,101246.09
2022-12-27T08:25:40.927Z,101255.88
2022-12-27T08:28:47.781Z,101266.34
2022-12-27T08:31:50.503Z,101263.81
2022-12-27T08:34:53.348Z,101271.16
2022-12-27T08:37:56.375Z,101287.56
2022-12-27T08:40:59.341Z,101297.06
2022-12-27T08:44:01.954Z,101295.31
2022-12-27T08:47:05.738Z,101294.03
2022-12-27T08:50:09.045Z,101287.78
2022-12-27T08:53:12.073Z,101289.28
2022-12-27T08:56:14.675Z,101279.91
2022-12-27T08:59:17.752Z,101290.50
2022-12-27T09:02:20.612Z,101290.75
2022-12-27T09:05:26.070Z,101287.16
2022-12-27T09:08:28.660Z,101281.69
2022-12-27T09:11:33.568Z,101273.69
2022-12-27T09:14:36.519Z,101282.34
2022-12-27T09:17:40.187Z,101285.31
2022-12-27T09:20:42.845Z,101279.41
2022-12-27T09:23:46.489Z,101288.78
2022-12-27T09:26:49.087Z,101299.00
2022-12-27T09:29:54.008Z,101290.59
2022-12-27T09:32:58.111Z,101322.31
2022-12-27T09:36:12.171Z,101322.53
2022-12-27T09:39:17.126Z,101320.84
2022-12-27T09:42:56.162Z,101321.81
2022-12-27T09:46:03.825Z,101324.28
2022-12-27T09:49:22.296Z,101340.69
2022-12-27T09:52:39.715Z,101329.66
2022-12-27T09:55:51.444Z,101344.22
2022-12-27T09:59:25.027Z,101343.56
2022-12-27T10:02:29.616Z,101361.69
2022-12-27T10:05:37.217Z,101343.06
2022-12-27T10:09:01.596Z,101337.16
2022-12-27T10:12:36.972Z,101355.37
2022-12-27T10:15:48.361Z,101348.59
2022-12-27T10:19:24.929Z,101360.44
2022-12-27T10:22:38.875Z,101386.06
2022-12-27T10:25:44.912Z,101399.00
2022-12-27T10:28:57.196Z,101419.13
2022-12-27T10:32:00.511Z,101408.66
2022-12-27T10:35:05.985Z,101421.53
2022-12-27T10:38:11.610Z,101413.03
2022-12-27T10:41:34.155Z,101417.66
2022-12-27T10:44:37.091Z,101421.06
2022-12-27T10:47:39.776Z,101418.50
2022-12-27T10:50:55.973Z,101412.56
2022-12-27T10:54:02.234Z,101421.25
2022-12-27T10:57:24.152Z,101419.63
2022-12-27T11:00:27.157Z,101399.72
2022-12-27T11:03:32.227Z,101408.12
2022-12-27T11:06:35.598Z,101396.16
2022-12-27T11:09:50.346Z,101420.44
2022-12-27T11:13:04.964Z,101421.38
2022-12-27T11:16:15.817Z,101418.78
2022-12-27T11:19:26.033Z,101409.50
2022-12-27T11:22:29.429Z,101418.19
2022-12-27T11:25:33.654Z,101413.03
2022-12-27T11:28:45.951Z,101403.63
2022-12-27T11:31:49.560Z,101427.66
2022-12-27T11:34:56.093Z,101429.47
2022-12-27T11:37:58.717Z,101405.41
2022-12-27T11:41:07.784Z,101396.88
2022-12-27T11:44:17.731Z,101380.56
2022-12-27T11:47:56.757Z,101383.97
2022-12-27T11:51:21.432Z,101399.44
2022-12-27T11:54:52.111Z,101407.13
2022-12-27T11:58:15.935Z,101423.53
2022-12-27T12:01:46.529Z,101433.13
2022-12-27T12:04:58.656Z,101423.75
2022-12-27T12:08:35.498Z,101433.22
2022-12-27T12:12:02.979Z,101422.16
2022-12-27T12:15:23.776Z,101439.47
2022-12-27T12:18:38.977Z,101413.75
2022-12-27T12:22:27.837Z,101414.59
2022-12-27T12:25:42.866Z,101409.41
2022-12-27T12:29:05.129Z,101403.41
2022-12-27T12:32:39.367Z,101410.22
2022-12-27T12:36:19.698Z,101395.50
2022-12-27T12:39:59.931Z,101413.91
2022-12-27T12:43:31.912Z,101397.13
2022-12-27T12:46:49.662Z,101410.34
2022-12-27T12:50:28.806Z,101401.84
2022-12-27T12:53:54.846Z,101394.81
2022-12-27T12:57:35.403Z,101418.81
2022-12-27T13:00:55.251Z,101418.38
2022-12-27T13:04:45.899Z,101417.63
2022-12-27T13:08:36.983Z,101428.03
2022-12-27T13:11:50.866Z,101446.09
2022-12-27T13:15:12.239Z,101442.72
2022-12-27T13:18:34.049Z,101446.81
2022-12-27T13:22:04.985Z,101443.34
2022-12-27T13:25:52.093Z,101448.59
2022-12-27T13:29:22.621Z,101446.87
2022-12-27T13:33:05.028Z,101461.88
2022-12-27T13:36:30.620Z,101454.22
2022-12-27T13:39:43.022Z,101451.75
2022-12-27T13:43:13.996Z,101456.09
2022-12-27T13:46:16.544Z,101456.16
2022-12-27T13:49:28.376Z,101446.81
2022-12-27T13:52:59.829Z,101463.13
2022-12-27T13:56:53.326Z,101467.56
2022-12-27T14:00:21.735Z,101469.34
2022-12-27T14:03:50.457Z,101480.53
2022-12-27T14:07:20.810Z,101477.06
2022-12-27T14:10:32.260Z,101489.16
2022-12-27T14:13:38.985Z,101505.53
2022-12-27T14:16:59.039Z,101511.63
2022-12-27T14:20:28.536Z,101515.91
2022-12-27T14:23:39.398Z,101522.78
2022-12-27T14:27:03.783Z,101526.28
2022-12-27T14:30:22.068Z,101535.75
2022-12-27T14:33:27.574Z,101540.94
2022-12-27T14:36:37.304Z,101540.94
2022-12-27T14:40:12.980Z,101548.69
2022-12-27T14:43:52.947Z,101558.97
2022-12-27T14:47:04.701Z,101557.25
2022-12-27T14:50:42.029Z,101552.13
2022-12-27T14:53:53.863Z,101563.25
2022-12-27T14:57:25.279Z,101573.59
2022-12-27T15:01:11.396Z,101569.28
2022-12-27T15:04:51.923Z,101568.44
2022-12-27T15:08:07.115Z,101560.72
2022-12-27T15:11:43.589Z,101567.56
2022-12-27T15:15:00.744Z,101557.31
2022-12-27T15:18:06.492Z,101567.59
2022-12-27T15:21:18.321Z,101573.59
2022-12-27T15:24:30.051Z,101588.12
2022-12-27T15:27:52.401Z,101595.84
2022-12-27T15:31:06.668Z,101605.22
2022-12-27T15:34:23.992Z,101615.47
2022-12-27T15:37:45.698Z,101621.47
2022-12-27T15:41:06.607Z,101626.53
2022-12-27T15:44:15.966Z,101626.47
2022-12-27T15:47:31.771Z,101626.44
2022-12-27T15:50:38.357Z,101627.34
2022-12-27T15:54:08.938Z,101632.50
2022-12-27T15:57:24.034Z,101632.56
2022-12-27T16:00:33.607Z,101635.97
2022-12-27T16:03:39.247Z,101647.88
2022-12-27T16:06:50.096Z,101651.25
2022-12-27T16:09:53.202Z,101652.91
2022-12-27T16:13:15.985Z,101657.19
2022-12-27T16:16:28.616Z,101661.53
2022-12-27T16:20:10.038Z,101652.91
2022-12-27T16:23:13.143Z,101658.03
2022-12-27T16:26:15.715Z,101663.91
2022-12-27T16:29:20.588Z,101654.41
2022-12-27T16:32:25.397Z,101653.47
2022-12-27T16:35:28.287Z,101658.62
2022-12-27T16:38:34.133Z,101659.53
2022-12-27T16:41:55.631Z,101661.19
2022-12-27T16:45:06.040Z,101662.19
2022-12-27T16:48:54.995Z,101669.97
2022-12-27T16:52:22.832Z,101658.97
2022-12-27T16:55:43.667Z,101653.06
2022-12-27T16:58:46.459Z,101662.50
2022-12-27T17:01:49.472Z,101669.38
2022-12-27T17:04:54.922Z,101660.81
2022-12-27T17:07:57.713Z,101667.69
2022-12-27T17:11:03.540Z,101674.59
2022-12-27T17:14:15.642Z,101678.84
2022-12-27T17:17:23.137Z,101671.94
2022-12-27T17:20:26.290Z,101679.62
2022-12-27T17:23:29.823Z,101676.12
2022-12-27T17:26:53.954Z,101683.84
2022-12-27T17:30:21.751Z,101694.09
2022-12-27T17:33:41.082Z,101695.81
2022-12-27T17:37:15.476Z,101692.31
2022-12-27T17:40:39.508Z,101689.69
2022-12-27T17:44:15.859Z,101686.12
2022-12-27T17:47:37.163Z,101704.87
2022-12-27T17:50:44.392Z,101703.22
2022-12-27T17:54:10.835Z,101705.72
2022-12-27T17:57:33.819Z,101706.53
2022-12-27T18:00:50.227Z,101709.13
2022-12-27T18:03:53.559Z,101720.38
2022-12-27T18:07:02.335Z,101714.28
2022-12-27T18:10:25.704Z,101713.41
2022-12-27T18:13:32.912Z,101725.13
2022-12-27T18:16:40.075Z,101733.56
2022-12-27T18:19:43.247Z,101735.16
2022-12-27T18:22:46.468Z,101743.50
2022-12-27T18:25:56.913Z,101740.97
2022-12-27T18:28:59.954Z,101748.44
2022-12-27T18:32:09.241Z,101749.19
2022-12-27T18:35:24.139Z,101746.50
2022-12-27T18:38:38.385Z,101746.69
2022-12-27T18:41:47.402Z,101742.50
2022-12-27T18:44:55.390Z,101758.53
2022-12-27T18:48:00.827Z,101754.19
2022-12-27T18:51:03.951Z,101766.06
2022-12-27T18:54:43.553Z,101777.00
2022-12-27T18:57:48.264Z,101765.87
2022-12-27T19:00:59.044Z,101772.56
2022-12-27T19:04:20.190Z,101772.37
2022-12-27T19:07:23.434Z,101767.91
2022-12-27T19:10:29.122Z,101784.00
2022-12-27T19:13:49.303Z,101773.72
2022-12-27T19:16:58.473Z,101776.22
2022-12-27T19:20:04.341Z,101771.03
2022-12-27T19:23:30.066Z,101774.34
2022-12-27T19:26:33.137Z,101773.44
2022-12-27T19:29:42.483Z,101778.50
2022-12-27T19:32:45.751Z,101776.75
2022-12-27T19:35:48.637Z,101763.09
2022-12-27T19:38:51.929Z,101762.13
2022-12-27T19:42:00.346Z,101753.59
2022-12-27T19:45:04.278Z,101761.16
2022-12-27T19:48:07.857Z,101771.28
2022-12-27T19:51:16.161Z,101766.06
2022-12-27T19:54:21.594Z,101785.66
2022-12-27T19:57:24.968Z,101788.38
2022-12-27T20:00:27.976Z,101785.09
2022-12-27T20:03:31.386Z,101782.59
2022-12-27T20:06:34.604Z,101775.13
2022-12-27T20:09:37.494Z,101773.53
2022-12-27T20:12:40.341Z,101769.03
2022-12-27T20:15:44.169Z,101770.56
2022-12-27T20:18:47.372Z,101766.22
2022-12-27T20:21:50.357Z,101766.28
2022-12-27T20:24:52.891Z,101773.28
2022-12-27T20:27:55.802Z,101776.00
2022-12-27T20:30:58.537Z,101772.69
2022-12-27T20:34:01.394Z,101774.44
2022-12-27T20:37:04.504Z,101784.78
2022-12-27T20:40:08.309Z,101789.87
2022-12-27T20:43:12.424Z,101787.47
2022-12-27T20:46:17.408Z,101789.31
2022-12-27T20:49:20.212Z,101779.88
2022-12-27T20:52:28.984Z,101781.69
2022-12-27T20:55:34.371Z,101786.50
2022-12-27T20:58:37.251Z,101800.13
2022-12-27T21:01:40.216Z,101799.53
2022-12-27T21:04:43.222Z,101793.88
2022-12-27T21:07:45.968Z,101783.63
2022-12-27T21:10:48.856Z,101776.53
2022-12-27T21:13:52.669Z,101788.31
2022-12-27T21:16:55.638Z,101791.50
2022-12-27T21:19:58.420Z,101804.22
2022-12-27T21:23:01.514Z,101810.25
2022-12-27T21:26:15.930Z,101808.84
2022-12-27T21:29:19.494Z,101801.75
2022-12-27T21:32:22.159Z,101804.28
2022-12-27T21:35:25.060Z,101806.69
2022-12-27T21:38:28.891Z,101803.19
2022-12-27T21:41:36.872Z,101808.19
2022-12-27T21:44:39.535Z,101811.47
2022-12-27T21:47:42.334Z,101803.09
2022-12-27T21:50:48.897Z,101808.53
2022-12-27T21:53:52.453Z,101809.37
2022-12-27T21:56:55.041Z,101812.97
2022-12-27T21:59:58.072Z,101814.09
2022-12-27T22:03:00.841Z,101807.94
2022-12-27T22:06:18.603Z,101801.75
2022-12-27T22:09:21.262Z,101804.13
2022-12-27T22:12:24.262Z,101805.59
2022-12-27T22:15:26.987Z,101807.06
2022-12-27T22:18:38.060Z,101809.28
2022-12-27T22:21:42.201Z,101810.81
2022-12-27T22:24:45.102Z,101808.16
2022-12-27T22:27:47.720Z,101813.22
2022-12-27T22:30:50.638Z,101813.97
2022-12-27T22:33:53.293Z,101817.25
2022-12-27T22:36:56.232Z,101814.62
2022-12-27T22:39:58.874Z,101818.25
2022-12-27T22:43:01.827Z,101815.00
2022-12-27T22:46:12.753Z,101815.31
2022-12-27T22:49:15.973Z,101803.28
2022-12-27T22:52:18.661Z,101807.75
2022-12-27T22:55:21.629Z,101801.75
2022-12-27T22:58:24.295Z,101789.47
2022-12-27T23:01:29.933Z,101794.53
2022-12-27T23:04:32.728Z,101790.13
2022-12-27T23:08:04.891Z,101793.88
2022-12-27T23:11:08.340Z,101793.37
2022-12-27T23:14:14.363Z,101795.38
2022-12-27T23:17:17.001Z,101793.53
2022-12-27T23:20:20.034Z,101799.31
2022-12-27T23:23:24.902Z,101781.25
2022-12-27T23:26:28.062Z,101778.56
2022-12-27T23:29:30.790Z,101776.97
2022-12-27T23:32:33.752Z,101781.12
2022-12-27T23:35:36.738Z,101772.66
2022-12-27T23:38:44.362Z,101772.06
2022-12-27T23:41:47.074Z,101765.09
2022-12-27T23:44:50.128Z,101765.84
2022-12-27T23:47:52.639Z,101763.09
2022-12-27T23:50:55.591Z,101758.59
2022-12-27T23:53:58.832Z,101754.16
2022-12-27T23:57:20.558Z,101760.13
